Lingwood, United Kingdom
Current Conditions -  °F | °C
As of 10:20 AM on Wednesday 22 Oct 2014 (Local Time) from EGSD Reporting Station
Scattered Clouds Scattered Clouds  
Wind Chill: 10°   Ceiling: Unl
Heat Index: 10°   Visibility: 6mi
Dew Point:   Wind: 16mph
Humidity: 87%   Direction: 270°W
Pressure: 30.18"   Gusts: NA
Location:  52.62°N, 1.49°E
Report Text: EGSD 220920Z 27014KT 9999 SCT018 10/08 Q1022
Loading
Personal Weather Stations






























Interactive Weather Map
Tropical Storm Tracking
New forecast layout! Learn more

10-Day Weather Forecast

Advertisements
Track Severe Weather on mobile